Time;durP1;ratioP1;P1;durP2;ratioP2;P2;SDS_P1;SDS_P2;PMS_P1;PMS_P2;Temp;Humidity;BMP_temperature;BMP_pressure;BME280_temperature;BME280_humidity;BME280_pressure;Samples;Min_cycle;Max_cycle;Signal;HPM_P1;HPM_P2
2023/12/27 00:01:50;;;;;;;1999.90;999.90;;;7.80;99.90;;;;;;6283590;22;20008;-76
2023/12/27 00:04:18;;;;;;;1999.90;999.90;;;7.80;99.90;;;;;;6283043;22;20440;-76
2023/12/27 00:06:43;;;;;;;1999.90;999.90;;;7.80;99.90;;;;;;6283728;22;20015;-76
2023/12/27 00:09:09;;;;;;;1999.90;999.90;;;7.90;99.90;;;;;;6283612;22;20027;-76
2023/12/27 00:11:35;;;;;;;1999.90;999.90;;;7.90;99.90;;;;;;6283550;22;20079;-76
2023/12/27 00:14:00;;;;;;;1999.90;999.90;;;7.80;99.90;;;;;;6282881;22;20000;-76
2023/12/27 00:16:26;;;;;;;1999.90;999.90;;;7.80;99.90;;;;;;6283570;22;20070;-77
2023/12/27 00:18:51;;;;;;;1999.90;999.90;;;7.90;99.90;;;;;;6283534;22;20062;-77
2023/12/27 00:21:17;;;;;;;1999.90;999.90;;;8.20;99.90;;;;;;6283636;22;20087;-76
2023/12/27 00:23:42;;;;;;;1999.90;999.90;;;7.90;99.90;;;;;;6282973;22;20422;-77
2023/12/27 00:26:08;;;;;;;1999.90;999.90;;;7.90;99.90;;;;;;6256167;22;20076;-76
2023/12/27 00:28:34;;;;;;;1999.90;999.90;;;7.90;99.90;;;;;;6283410;22;20014;-76
2023/12/27 00:30:59;;;;;;;1999.90;999.90;;;7.80;99.90;;;;;;6283549;22;20012;-76
2023/12/27 00:33:25;;;;;;;1999.90;999.90;;;7.80;99.90;;;;;;6255718;22;20309;-76
2023/12/27 00:35:50;;;;;;;1999.90;999.90;;;7.80;99.90;;;;;;6283415;22;20055;-76
2023/12/27 00:38:16;;;;;;;1999.90;999.90;;;7.70;99.90;;;;;;6283073;22;20019;-76
2023/12/27 00:40:41;;;;;;;1999.90;999.90;;;7.70;99.90;;;;;;6283534;22;20344;-77
2023/12/27 00:43:07;;;;;;;1999.90;999.90;;;7.70;99.90;;;;;;6283216;22;20436;-76
2023/12/27 00:45:32;;;;;;;1999.90;999.90;;;7.70;99.90;;;;;;6256258;22;20012;-75
2023/12/27 00:47:58;;;;;;;1999.90;999.90;;;7.70;99.90;;;;;;6283472;22;20023;-77
2023/12/27 00:50:23;;;;;;;1999.90;999.90;;;7.70;99.90;;;;;;6283294;22;20008;-76
2023/12/27 00:52:49;;;;;;;1999.90;999.90;;;7.70;99.90;;;;;;6282802;22;20338;-76
2023/12/27 00:55:14;;;;;;;1999.90;999.90;;;7.70;99.90;;;;;;6283699;22;20050;-76
2023/12/27 00:57:40;;;;;;;1999.90;999.90;;;7.80;99.90;;;;;;6283014;22;20058;-76
2023/12/27 01:00:06;;;;;;;1999.90;999.90;;;7.70;99.90;;;;;;6283446;22;20000;-75
2023/12/27 01:02:34;;;;;;;1999.90;999.90;;;7.70;99.90;;;;;;6285580;22;20020;-75
2023/12/27 01:05:00;;;;;;;1999.90;999.90;;;7.70;99.90;;;;;;6294333;22;20007;-76
2023/12/27 01:07:26;;;;;;;1999.90;999.90;;;7.70;99.90;;;;;;6284071;22;20432;-75
2023/12/27 01:09:51;;;;;;;1999.90;999.90;;;7.70;99.90;;;;;;6283427;22;20052;-77
2023/12/27 01:12:17;;;;;;;1999.90;999.90;;;7.60;99.90;;;;;;6283852;22;20012;-77
2023/12/27 01:14:43;;;;;;;1999.90;999.90;;;7.60;99.90;;;;;;6255725;22;20023;-76
2023/12/27 01:17:09;;;;;;;1999.90;999.90;;;7.60;99.90;;;;;;6283557;22;20012;-77
2023/12/27 01:19:35;;;;;;;1999.90;999.90;;;7.50;99.90;;;;;;6283818;22;20442;-76
2023/12/27 01:22:00;;;;;;;1999.90;999.90;;;7.50;99.90;;;;;;6283694;22;20008;-76
2023/12/27 01:24:26;;;;;;;1999.90;999.90;;;7.40;99.90;;;;;;6282825;22;20076;-76
2023/12/27 01:26:51;;;;;;;1999.90;999.90;;;7.40;99.90;;;;;;6283213;22;20117;-77
2023/12/27 01:29:17;;;;;;;1999.90;999.90;;;7.40;99.90;;;;;;6283248;22;20471;-76
2023/12/27 01:31:42;;;;;;;1999.90;999.90;;;7.40;99.90;;;;;;6283082;22;20083;-76
2023/12/27 01:34:08;;;;;;;1999.90;999.90;;;7.40;99.90;;;;;;6282654;22;20067;-76
2023/12/27 01:36:33;;;;;;;1999.90;999.90;;;7.40;99.90;;;;;;6283174;22;20009;-76
2023/12/27 01:38:59;;;;;;;1999.90;999.90;;;7.40;99.90;;;;;;6282864;22;20004;-76
2023/12/27 01:41:24;;;;;;;1999.90;999.90;;;7.40;99.90;;;;;;6282988;22;20008;-76
2023/12/27 01:43:50;;;;;;;1999.90;999.90;;;7.40;99.90;;;;;;6255299;22;20004;-75
2023/12/27 01:46:16;;;;;;;1999.90;999.90;;;7.40;99.90;;;;;;6255935;22;20411;-77
2023/12/27 01:48:43;;;;;;;1999.90;999.90;;;7.40;99.90;;;;;;6283388;22;20005;-76
2023/12/27 01:51:09;;;;;;;1999.90;999.90;;;7.40;99.90;;;;;;6255611;22;20012;-77
2023/12/27 01:53:34;;;;;;;1999.90;999.90;;;7.50;99.90;;;;;;6255224;22;20031;-77
2023/12/27 01:56:01;;;;;;;1999.90;999.90;;;7.50;99.90;;;;;;6282910;22;20015;-76
2023/12/27 01:58:27;;;;;;;1999.90;999.90;;;7.60;99.90;;;;;;6255528;22;20035;-77
2023/12/27 02:00:53;;;;;;;1999.90;999.90;;;7.60;99.90;;;;;;6282907;22;20012;-76
2023/12/27 02:03:21;;;;;;;1999.90;999.90;;;7.60;99.90;;;;;;6282495;22;20000;-76
2023/12/27 02:05:48;;;;;;;1999.90;999.90;;;7.60;99.90;;;;;;6282887;22;20477;-76
2023/12/27 02:08:14;;;;;;;1999.90;999.90;;;7.60;99.90;;;;;;6283577;22;20004;-76
2023/12/27 02:10:41;;;;;;;1999.90;999.90;;;7.70;99.90;;;;;;6284209;22;20008;-77
2023/12/27 02:13:07;;;;;;;1999.90;999.90;;;7.70;99.90;;;;;;6283676;22;20087;-76
2023/12/27 02:15:33;;;;;;;1999.90;999.90;;;7.70;99.90;;;;;;6284226;22;20042;-76
2023/12/27 02:18:01;;;;;;;1999.90;999.90;;;7.70;99.90;;;;;;6284138;22;20432;-76
2023/12/27 02:20:27;;;;;;;1999.90;999.90;;;7.70;99.90;;;;;;6284139;22;20030;-76
2023/12/27 02:22:55;;;;;;;1999.90;999.90;;;7.70;99.90;;;;;;6283685;22;20072;-75
2023/12/27 02:25:21;;;;;;;1999.90;999.90;;;7.70;99.90;;;;;;6284238;22;20016;-77
2023/12/27 02:27:47;;;;;;;1999.90;999.90;;;7.80;99.90;;;;;;6284953;22;20071;-75
2023/12/27 02:30:18;;;;;;;1999.90;999.90;;;7.80;99.90;;;;;;6256581;22;20075;-76
2023/12/27 02:32:44;;;;;;;1999.90;999.90;;;7.80;99.90;;;;;;6283459;22;20008;-76
2023/12/27 02:35:10;;;;;;;1999.90;999.90;;;7.80;99.90;;;;;;6283825;22;20062;-75
2023/12/27 02:37:35;;;;;;;1999.90;999.90;;;7.80;99.90;;;;;;6283797;22;20387;-76
2023/12/27 02:40:03;;;;;;;1999.90;999.90;;;7.80;99.90;;;;;;6284123;22;20325;-76
2023/12/27 02:42:29;;;;;;;1999.90;999.90;;;7.80;99.90;;;;;;6256400;22;20436;-76
2023/12/27 02:44:54;;;;;;;1999.90;999.90;;;7.80;99.90;;;;;;6283417;22;20012;-75
2023/12/27 02:47:20;;;;;;;1999.90;999.90;;;7.90;99.90;;;;;;6296213;22;20019;-74
2023/12/27 02:49:46;;;;;;;1999.90;999.90;;;7.90;99.90;;;;;;6315110;22;20078;-74
2023/12/27 02:52:11;;;;;;;1999.90;999.90;;;7.90;99.90;;;;;;6313565;22;20061;-74
2023/12/27 02:54:37;;;;;;;1999.90;999.90;;;7.90;99.90;;;;;;6314599;22;20007;-75
2023/12/27 02:57:03;;;;;;;1999.90;999.90;;;7.90;99.90;;;;;;6303185;22;20009;-75
2023/12/27 02:59:28;;;;;;;1999.90;999.90;;;7.90;99.90;;;;;;6256538;22;20011;-75
2023/12/27 03:01:54;;;;;;;1999.90;999.90;;;7.90;99.90;;;;;;6256678;22;20008;-75
2023/12/27 03:04:19;;;;;;;1999.90;999.90;;;7.90;99.90;;;;;;6283592;22;20369;-75
2023/12/27 03:06:45;;;;;;;1999.90;999.90;;;7.90;99.90;;;;;;6283701;22;20431;-75
2023/12/27 03:09:10;;;;;;;1999.90;999.90;;;7.90;99.90;;;;;;6256419;22;20010;-75
2023/12/27 03:11:36;;;;;;;1999.90;999.90;;;7.90;99.90;;;;;;6283997;22;20018;-75
2023/12/27 03:14:01;;;;;;;1999.90;999.90;;;7.90;99.90;;;;;;6283553;22;20012;-75
2023/12/27 03:16:28;;;;;;;1999.90;999.90;;;7.90;99.90;;;;;;6283723;22;20401;-75
2023/12/27 03:18:54;;;;;;;1999.90;999.90;;;7.90;99.90;;;;;;6256449;22;20495;-75
2023/12/27 03:21:19;;;;;;;1999.90;999.90;;;7.80;99.90;;;;;;6283711;22;20059;-75
2023/12/27 03:23:46;;;;;;;1999.90;999.90;;;7.80;99.90;;;;;;6283316;22;20332;-75
2023/12/27 03:26:11;;;;;;;1999.90;999.90;;;7.80;99.90;;;;;;6283570;22;20415;-75
2023/12/27 03:28:37;;;;;;;1999.90;999.90;;;7.80;99.90;;;;;;6282255;22;20000;-75
2023/12/27 03:31:02;;;;;;;1999.90;999.90;;;7.80;99.90;;;;;;6283792;22;20440;-75
2023/12/27 03:33:28;;;;;;;1999.90;999.90;;;7.80;99.90;;;;;;6283355;22;20456;-75
2023/12/27 03:35:53;;;;;;;1999.90;999.90;;;7.80;99.90;;;;;;6284004;22;20455;-75
2023/12/27 03:38:19;;;;;;;1999.90;999.90;;;7.80;99.90;;;;;;6283597;22;20039;-75
2023/12/27 03:40:44;;;;;;;1999.90;999.90;;;7.80;99.90;;;;;;6283891;22;20004;-75
2023/12/27 03:43:10;;;;;;;1999.90;999.90;;;7.70;99.90;;;;;;6283430;22;20340;-75
2023/12/27 03:45:36;;;;;;;1999.90;999.90;;;7.70;99.90;;;;;;6283718;22;20012;-75
2023/12/27 03:48:02;;;;;;;1999.90;999.90;;;7.70;99.90;;;;;;6281997;22;20009;-75
2023/12/27 03:50:28;;;;;;;1999.90;999.90;;;7.70;99.90;;;;;;6283738;22;20092;-75
2023/12/27 03:52:53;;;;;;;1999.90;999.90;;;7.70;99.90;;;;;;6283192;22;20092;-76
2023/12/27 03:55:19;;;;;;;1999.90;999.90;;;7.70;99.90;;;;;;6283562;22;20004;-74
2023/12/27 03:57:45;;;;;;;1999.90;999.90;;;7.70;99.90;;;;;;6283393;22;20008;-75
2023/12/27 04:00:11;;;;;;;1999.90;999.90;;;7.70;99.90;;;;;;6283666;22;20079;-75
2023/12/27 04:02:37;;;;;;;1999.90;999.90;;;7.70;99.90;;;;;;6255733;22;20012;-75
2023/12/27 04:05:03;;;;;;;1999.90;999.90;;;7.70;99.90;;;;;;6283641;22;20000;-75
2023/12/27 04:07:29;;;;;;;1999.90;999.90;;;7.70;99.90;;;;;;6283373;22;20387;-75
2023/12/27 04:09:55;;;;;;;1999.90;999.90;;;7.70;99.90;;;;;;6283854;22;20011;-75
2023/12/27 04:12:21;;;;;;;1999.90;999.90;;;7.70;99.90;;;;;;6283466;22;20016;-75
2023/12/27 04:14:47;;;;;;;1999.90;999.90;;;7.60;99.90;;;;;;6283373;22;20004;-75
2023/12/27 04:17:13;;;;;;;1999.90;999.90;;;7.60;99.90;;;;;;6283195;22;20008;-75
2023/12/27 04:19:39;;;;;;;1999.90;999.90;;;7.60;99.90;;;;;;6285095;22;20000;-75
2023/12/27 04:22:05;;;;;;;1999.90;999.90;;;7.70;99.90;;;;;;6283437;22;20079;-75
2023/12/27 04:24:30;;;;;;;1999.90;999.90;;;7.70;99.90;;;;;;6283200;22;20089;-75
2023/12/27 04:26:56;;;;;;;1999.90;999.90;;;7.70;99.90;;;;;;6283363;22;20448;-75
2023/12/27 04:29:22;;;;;;;1999.90;999.90;;;7.70;99.90;;;;;;6281774;22;20014;-75
2023/12/27 04:31:47;;;;;;;1999.90;999.90;;;7.70;99.90;;;;;;6282736;22;20016;-75
2023/12/27 04:34:13;;;;;;;1999.90;999.90;;;7.70;99.90;;;;;;6283267;22;20000;-75
2023/12/27 04:36:38;;;;;;;1999.90;999.90;;;7.70;99.90;;;;;;6255941;22;20008;-75
2023/12/27 04:39:04;;;;;;;1999.90;999.90;;;7.70;99.90;;;;;;6283557;22;20394;-75
2023/12/27 04:41:29;;;;;;;1999.90;999.90;;;7.70;99.90;;;;;;6256212;22;20355;-75
2023/12/27 04:43:55;;;;;;;1999.90;999.90;;;7.70;99.90;;;;;;6283209;22;20008;-75
2023/12/27 04:46:20;;;;;;;1999.90;999.90;;;7.70;99.90;;;;;;6282972;22;20443;-75
2023/12/27 04:48:46;;;;;;;1999.90;999.90;;;7.70;99.90;;;;;;6283592;22;20035;-75
2023/12/27 04:51:12;;;;;;;1999.90;999.90;;;7.70;99.90;;;;;;6283241;22;20027;-75
2023/12/27 04:53:38;;;;;;;1999.90;999.90;;;7.70;99.90;;;;;;6255732;22;20451;-75
2023/12/27 04:56:04;;;;;;;1999.90;999.90;;;7.70;99.90;;;;;;6283351;22;20115;-75
2023/12/27 04:58:30;;;;;;;1999.90;999.90;;;7.70;99.90;;;;;;6283457;22;20008;-75
2023/12/27 05:00:55;;;;;;;1999.90;999.90;;;7.80;99.90;;;;;;6283449;22;20016;-74
2023/12/27 05:03:21;;;;;;;1999.90;999.90;;;7.80;99.90;;;;;;6255740;22;20004;-74
2023/12/27 05:05:47;;;;;;;1999.90;999.90;;;7.80;99.90;;;;;;6283257;22;20513;-75
2023/12/27 05:08:12;;;;;;;1999.90;999.90;;;7.70;99.90;;;;;;6283101;22;20011;-75
2023/12/27 05:10:38;;;;;;;1999.90;999.90;;;7.70;99.90;;;;;;6283290;22;20012;-75
2023/12/27 05:13:03;;;;;;;1999.90;999.90;;;7.80;99.90;;;;;;6282965;22;20347;-75
2023/12/27 05:15:29;;;;;;;1999.90;999.90;;;7.70;99.90;;;;;;6283405;22;20398;-75
2023/12/27 05:17:55;;;;;;;1999.90;999.90;;;7.70;99.90;;;;;;6283279;22;20344;-75
2023/12/27 05:20:20;;;;;;;1999.90;999.90;;;7.70;99.90;;;;;;6283216;22;20440;-75
2023/12/27 05:22:46;;;;;;;1999.90;999.90;;;7.70;99.90;;;;;;6255536;22;20087;-75
2023/12/27 05:25:11;;;;;;;1999.90;999.90;;;7.70;99.90;;;;;;6255972;22;20004;-75
2023/12/27 05:27:37;;;;;;;1999.90;999.90;;;7.70;99.90;;;;;;6255871;22;20380;-75
2023/12/27 05:30:03;;;;;;;1999.90;999.90;;;7.70;99.90;;;;;;6255725;22;20035;-75
2023/12/27 05:32:29;;;;;;;1999.90;999.90;;;7.70;99.90;;;;;;6282548;22;20475;-75
2023/12/27 05:34:55;;;;;;;1999.90;999.90;;;7.70;99.90;;;;;;6282744;22;20004;-75
2023/12/27 05:37:20;;;;;;;1999.90;999.90;;;7.70;99.90;;;;;;6282878;22;20436;-75
2023/12/27 05:39:46;;;;;;;1999.90;999.90;;;7.70;99.90;;;;;;6283134;22;20420;-75
2023/12/27 05:42:15;;;;;;;1999.90;999.90;;;7.70;99.90;;;;;;6282997;22;20008;-75
2023/12/27 05:44:41;;;;;;;1999.90;999.90;;;7.70;99.90;;;;;;6255038;22;20005;-74
2023/12/27 05:47:06;;;;;;;1999.90;999.90;;;7.70;99.90;;;;;;6282712;22;20013;-74
2023/12/27 05:49:33;;;;;;;1999.90;999.90;;;7.70;99.90;;;;;;6255637;22;20031;-74
2023/12/27 05:51:59;;;;;;;1999.90;999.90;;;7.70;99.90;;;;;;6255406;22;20012;-74
2023/12/27 05:54:26;;;;;;;1999.90;999.90;;;7.70;99.90;;;;;;6282644;22;20004;-74
2023/12/27 05:56:54;;;;;;;1999.90;999.90;;;7.70;99.90;;;;;;6282825;22;20004;-74
2023/12/27 05:59:20;;;;;;;1999.90;999.90;;;7.70;99.90;;;;;;6282893;22;20043;-74
2023/12/27 06:01:52;;;;;;;1999.90;999.90;;;7.70;99.90;;;;;;6282933;22;20016;-76
2023/12/27 06:04:18;;;;;;;1999.90;999.90;;;7.60;99.90;;;;;;6254760;22;20008;-75
2023/12/27 06:06:44;;;;;;;1999.90;999.90;;;7.60;99.90;;;;;;6282692;22;20005;-74
2023/12/27 06:09:10;;;;;;;1999.90;999.90;;;7.60;99.90;;;;;;6282780;22;20040;-73
2023/12/27 06:11:37;;;;;;;1999.90;999.90;;;7.60;99.90;;;;;;6255253;22;20012;-76
2023/12/27 06:14:03;;;;;;;1999.90;999.90;;;7.60;99.90;;;;;;6282377;22;20005;-74
2023/12/27 06:16:29;;;;;;;1999.90;999.90;;;7.50;99.90;;;;;;6282360;22;20012;-74
2023/12/27 06:18:56;;;;;;;1999.90;999.90;;;7.50;99.90;;;;;;6255262;22;20404;-76
2023/12/27 06:21:22;;;;;;;1999.90;999.90;;;7.50;99.90;;;;;;6255141;22;20004;-74
2023/12/27 06:23:48;;;;;;;1999.90;999.90;;;7.50;99.90;;;;;;6255071;22;20074;-74
2023/12/27 06:26:13;;;;;;;1999.90;999.90;;;7.50;99.90;;;;;;6282164;22;20004;-75
2023/12/27 06:28:42;;;;;;;1999.90;999.90;;;7.50;99.90;;;;;;6282613;22;20015;-73
2023/12/27 06:31:08;;;;;;;1999.90;999.90;;;7.50;99.90;;;;;;6255064;22;20015;-76
2023/12/27 06:33:34;;;;;;;1999.90;999.90;;;7.50;99.90;;;;;;6254761;22;20008;-74
2023/12/27 06:35:59;;;;;;;1999.90;999.90;;;7.40;99.90;;;;;;6282549;22;20008;-73
2023/12/27 06:38:25;;;;;;;1999.90;999.90;;;7.30;99.90;;;;;;6254963;22;20012;-73
2023/12/27 06:40:50;;;;;;;1999.90;999.90;;;7.30;99.90;;;;;;6282393;22;20082;-74
2023/12/27 06:43:16;;;;;;;1999.90;999.90;;;7.30;99.90;;;;;;6282175;22;20008;-74
2023/12/27 06:45:41;;;;;;;1999.90;999.90;;;7.20;99.90;;;;;;6282532;22;20012;-74
2023/12/27 06:48:07;;;;;;;1999.90;999.90;;;7.40;99.90;;;;;;6281933;22;20083;-74
2023/12/27 06:50:32;;;;;;;1999.90;999.90;;;7.20;99.90;;;;;;6282261;22;20078;-76
2023/12/27 06:52:58;;;;;;;1999.90;999.90;;;7.20;99.90;;;;;;6281960;22;20014;-73
2023/12/27 06:55:24;;;;;;;1999.90;999.90;;;7.20;99.90;;;;;;6255773;22;20008;-74
2023/12/27 06:57:49;;;;;;;1999.90;999.90;;;7.20;99.90;;;;;;6256567;22;20499;-75
2023/12/27 07:00:15;;;;;;;1999.90;999.90;;;7.20;99.90;;;;;;6284243;22;20000;-73
2023/12/27 07:02:41;;;;;;;1999.90;999.90;;;7.20;99.90;;;;;;6283606;22;20035;-74
2023/12/27 07:05:07;;;;;;;1999.90;999.90;;;7.10;99.90;;;;;;6284009;22;20006;-74
2023/12/27 07:07:34;;;;;;;1999.90;999.90;;;7.10;99.90;;;;;;6256419;22;20016;-74
2023/12/27 07:10:00;;;;;;;1999.90;999.90;;;7.10;99.90;;;;;;6283926;22;20039;-73
2023/12/27 07:12:26;;;;;;;1999.90;999.90;;;7.00;99.90;;;;;;6283797;22;20478;-74
2023/12/27 07:14:51;;;;;;;1999.90;999.90;;;7.00;99.90;;;;;;6256302;22;20051;-74
2023/12/27 07:17:17;;;;;;;1999.90;999.90;;;7.00;99.90;;;;;;6283575;22;20352;-74
2023/12/27 07:19:42;;;;;;;1999.90;999.90;;;7.00;99.90;;;;;;6283977;22;20012;-73
2023/12/27 07:22:08;;;;;;;1999.90;999.90;;;7.00;99.90;;;;;;6283861;22;20007;-74
2023/12/27 07:24:33;;;;;;;1999.90;999.90;;;7.00;99.90;;;;;;6283532;22;20371;-74
2023/12/27 07:26:59;;;;;;;1999.90;999.90;;;7.00;99.90;;;;;;6283625;22;20016;-73
2023/12/27 07:29:24;;;;;;;1999.90;999.90;;;7.10;99.90;;;;;;6283707;22;20429;-73
2023/12/27 07:31:50;;;;;;;1999.90;999.90;;;7.10;99.90;;;;;;6256181;22;20022;-74
2023/12/27 07:34:16;;;;;;;1999.90;999.90;;;7.10;99.90;;;;;;6283042;22;20079;-74
2023/12/27 07:36:41;;;;;;;1999.90;999.90;;;7.20;99.90;;;;;;6283648;22;20008;-74
2023/12/27 07:39:09;;;;;;;1999.90;999.90;;;7.20;99.90;;;;;;6256817;22;20061;-74
2023/12/27 07:41:35;;;;;;;1999.90;999.90;;;7.20;99.90;;;;;;6283713;22;20011;-74
2023/12/27 07:44:00;;;;;;;1999.90;999.90;;;7.20;99.90;;;;;;6283285;22;20001;-76
2023/12/27 07:46:26;;;;;;;1999.90;999.90;;;7.20;99.90;;;;;;6256104;22;20018;-76
2023/12/27 07:48:52;;;;;;;1999.90;999.90;;;7.20;99.90;;;;;;6283695;22;20015;-76
2023/12/27 07:51:17;;;;;;;1999.90;999.90;;;7.20;99.90;;;;;;6283816;22;20016;-76
2023/12/27 07:53:43;;;;;;;1999.90;999.90;;;7.10;99.90;;;;;;6256056;22;20019;-75
2023/12/27 07:56:12;;;;;;;1999.90;999.90;;;7.10;99.90;;;;;;6283637;22;20012;-76
2023/12/27 07:58:37;;;;;;;1999.90;999.90;;;7.10;99.90;;;;;;6256071;22;20011;-75
2023/12/27 08:01:03;;;;;;;1999.90;999.90;;;7.10;99.90;;;;;;6281813;22;20008;-76
2023/12/27 08:03:29;;;;;;;1999.90;999.90;;;7.10;99.90;;;;;;6256323;22;20504;-76
2023/12/27 08:05:54;;;;;;;1999.90;999.90;;;7.10;99.90;;;;;;6283742;22;20008;-76
2023/12/27 08:08:20;;;;;;;1999.90;999.90;;;7.10;99.90;;;;;;6256315;22;20013;-76
2023/12/27 08:10:45;;;;;;;1999.90;999.90;;;7.10;99.90;;;;;;6256463;22;20412;-76
2023/12/27 08:13:11;;;;;;;1999.90;999.90;;;7.10;99.90;;;;;;6284727;22;20038;-77
2023/12/27 08:15:36;;;;;;;1999.90;999.90;;;7.10;99.90;;;;;;6284164;22;20095;-77
2023/12/27 08:18:05;;;;;;;1999.90;999.90;;;7.10;99.90;;;;;;6256709;22;20023;-77
2023/12/27 08:20:30;;;;;;;1999.90;999.90;;;7.10;99.90;;;;;;6284073;22;20741;-77
2023/12/27 08:22:58;;;;;;;1999.90;999.90;;;7.10;99.90;;;;;;6281977;22;20012;-77
2023/12/27 08:25:24;;;;;;;1999.90;999.90;;;7.10;99.90;;;;;;6256435;22;20032;-77
2023/12/27 08:27:49;;;;;;;1999.90;999.90;;;7.00;99.90;;;;;;6257126;22;20012;-77
2023/12/27 08:30:15;;;;;;;1999.90;999.90;;;7.10;99.90;;;;;;6284707;22;20008;-77
2023/12/27 08:32:41;;;;;;;1999.90;999.90;;;7.10;99.90;;;;;;6283385;22;20019;-77
2023/12/27 08:35:07;;;;;;;1999.90;999.90;;;7.10;99.90;;;;;;6284520;22;20015;-77
2023/12/27 08:37:32;;;;;;;1999.90;999.90;;;7.10;99.90;;;;;;6281832;22;20016;-77
2023/12/27 08:39:59;;;;;;;1999.90;999.90;;;7.10;99.90;;;;;;6283376;22;20444;-77
2023/12/27 08:42:24;;;;;;;1999.90;999.90;;;7.10;99.90;;;;;;6255974;22;20008;-77
2023/12/27 08:44:50;;;;;;;1999.90;999.90;;;7.30;99.90;;;;;;6255874;22;20020;-76
2023/12/27 08:47:16;;;;;;;1999.90;999.90;;;7.40;99.90;;;;;;6283899;22;20664;-77
2023/12/27 08:49:41;;;;;;;1999.90;999.90;;;7.40;99.90;;;;;;6282006;22;20039;-77
2023/12/27 08:52:07;;;;;;;1999.90;999.90;;;7.50;99.90;;;;;;6283388;22;20076;-77
2023/12/27 08:54:33;;;;;;;1999.90;999.90;;;7.50;99.90;;;;;;6283119;22;20012;-76
2023/12/27 08:56:58;;;;;;;1999.90;999.90;;;7.50;99.90;;;;;;6283559;22;20008;-77
2023/12/27 08:59:24;;;;;;;1999.90;999.90;;;7.60;99.90;;;;;;6256422;22;20007;-77
2023/12/27 09:01:50;;;;;;;1999.90;999.90;;;7.60;99.90;;;;;;6283618;22;20010;-77
2023/12/27 09:04:18;;;;;;;1999.90;999.90;;;7.50;99.90;;;;;;6255798;22;20499;-74
2023/12/27 09:06:44;;;;;;;1999.90;999.90;;;7.50;99.90;;;;;;6283309;22;20008;-77
2023/12/27 09:09:11;;;;;;;1999.90;999.90;;;7.50;99.90;;;;;;6283723;22;20008;-77
2023/12/27 09:11:36;;;;;;;1999.90;999.90;;;7.40;99.90;;;;;;6256005;22;20075;-76
2023/12/27 09:14:02;;;;;;;1999.90;999.90;;;7.40;99.90;;;;;;6255603;22;20024;-77
2023/12/27 09:16:28;;;;;;;1999.90;999.90;;;7.40;99.90;;;;;;6283365;22;20032;-76
2023/12/27 09:18:53;;;;;;;1999.90;999.90;;;7.30;99.90;;;;;;6255932;22;20015;-76
2023/12/27 09:21:19;;;;;;;1999.90;999.90;;;7.30;99.90;;;;;;6284105;22;20028;-76
2023/12/27 09:23:44;;;;;;;1999.90;999.90;;;7.30;99.90;;;;;;6282357;22;20012;-76
2023/12/27 09:26:13;;;;;;;1999.90;999.90;;;7.30;99.90;;;;;;6283415;22;20034;-76
2023/12/27 09:28:39;;;;;;;1999.90;999.90;;;7.30;99.90;;;;;;6283857;22;20077;-76
2023/12/27 09:31:04;;;;;;;1999.90;999.90;;;7.40;99.90;;;;;;6284956;22;20459;-77
2023/12/27 09:33:30;;;;;;;1999.90;999.90;;;7.60;99.90;;;;;;6257138;22;20059;-77
2023/12/27 09:35:56;;;;;;;1999.90;999.90;;;7.80;99.90;;;;;;6257346;22;20008;-75
2023/12/27 09:38:21;;;;;;;1999.90;999.90;;;8.00;99.90;;;;;;6283795;22;20011;-76
2023/12/27 09:40:48;;;;;;;1999.90;999.90;;;8.00;99.90;;;;;;6256189;22;20031;-76
2023/12/27 09:43:15;;;;;;;1999.90;999.90;;;8.50;99.90;;;;;;6255622;22;20403;-76
2023/12/27 09:45:41;;;;;;;1999.90;999.90;;;8.70;99.90;;;;;;6283419;22;20004;-76
2023/12/27 09:48:13;;;;;;;1999.90;999.90;;;8.80;99.90;;;;;;6283546;22;20016;-76
2023/12/27 09:50:42;;;;;;;1999.90;999.90;;;9.00;99.90;;;;;;6284145;22;20012;-76
2023/12/27 09:53:10;;;;;;;1999.90;999.90;;;9.20;99.90;;;;;;6260629;22;20019;-76
2023/12/27 09:55:36;;;;;;;1999.90;999.90;;;9.40;99.90;;;;;;6260056;22;20010;-77
2023/12/27 09:58:04;;;;;;;1999.90;999.90;;;9.60;99.90;;;;;;6284352;22;20038;-77
2023/12/27 10:00:32;;;;;;;1999.90;999.90;;;9.80;99.90;;;;;;6257723;22;20083;-76
2023/12/27 10:02:59;;;;;;;1999.90;999.90;;;9.90;99.90;;;;;;6284746;22;20009;-76
2023/12/27 10:05:41;;;;;;;1999.90;999.90;;;9.90;99.90;;;;;;6255668;22;20081;-76
2023/12/27 10:08:07;;;;;;;1999.90;999.90;;;10.00;99.90;;;;;;6282727;22;20015;-76
2023/12/27 10:10:35;;;;;;;1999.90;999.90;;;10.10;99.90;;;;;;6282927;22;20223;-76
2023/12/27 10:13:02;;;;;;;1999.90;999.90;;;10.10;99.90;;;;;;6255264;22;20470;-76
2023/12/27 10:15:29;;;;;;;1999.90;999.90;;;10.20;99.90;;;;;;6255504;22;20004;-75
2023/12/27 10:17:54;;;;;;;1999.90;999.90;;;10.20;99.90;;;;;;6282511;22;20008;-75
2023/12/27 10:20:36;;;;;;;1999.90;999.90;;;10.20;99.90;;;;;;6255575;22;20459;-77
2023/12/27 10:23:02;;;;;;;1999.90;999.90;;;10.30;99.90;;;;;;6282608;22;20059;-76
2023/12/27 10:25:29;;;;;;;1999.90;999.90;;;10.50;99.90;;;;;;6255588;22;20012;-76
2023/12/27 10:27:57;;;;;;;1999.90;999.90;;;10.60;99.90;;;;;;6282253;22;20001;-76
2023/12/27 10:30:23;;;;;;;1999.90;999.90;;;10.70;99.90;;;;;;6283517;22;20420;-76
2023/12/27 10:33:06;;;;;;;1999.90;999.90;;;10.60;99.90;;;;;;6283381;22;20094;-76
2023/12/27 10:35:32;;;;;;;1999.90;999.90;;;10.40;99.90;;;;;;6257074;22;20486;-76
2023/12/27 10:38:01;;;;;;;1999.90;999.90;;;10.30;99.90;;;;;;6256854;22;20008;-76
2023/12/27 10:40:27;;;;;;;1999.90;999.90;;;10.30;99.90;;;;;;6284068;22;20007;-76
2023/12/27 10:42:53;;;;;;;1999.90;999.90;;;10.30;99.90;;;;;;6284407;22;20340;-76
2023/12/27 10:45:21;;;;;;;1999.90;999.90;;;10.30;99.90;;;;;;6260782;22;20136;-76
2023/12/27 10:47:49;;;;;;;1999.90;999.90;;;10.50;99.90;;;;;;6258200;22;20011;-76
2023/12/27 10:50:19;;;;;;;1999.90;999.90;;;10.70;99.90;;;;;;6257784;22;20637;-76
2023/12/27 10:52:55;;;;;;;1999.90;999.90;;;10.80;99.90;;;;;;6285702;22;20174;-77
2023/12/27 10:55:24;;;;;;;1999.90;999.90;;;11.00;99.90;;;;;;6285930;22;20151;-77
2023/12/27 10:57:55;;;;;;;1999.90;999.90;;;11.20;99.90;;;;;;6259856;22;20058;-77
2023/12/27 11:00:21;;;;;;;1999.90;999.90;;;11.40;99.90;;;;;;6288947;22;19997;-77
2023/12/27 11:02:47;;;;;;;1999.90;999.90;;;11.50;99.90;;;;;;6260328;22;20039;-77
2023/12/27 11:05:15;;;;;;;1999.90;999.90;;;11.50;99.90;;;;;;6290148;22;20211;-76
2023/12/27 11:07:44;;;;;;;1999.90;999.90;;;11.60;99.90;;;;;;6290576;22;20004;-77
2023/12/27 11:10:12;;;;;;;1999.90;999.90;;;11.60;99.90;;;;;;6259196;22;20004;-77
2023/12/27 11:12:40;;;;;;;1999.90;999.90;;;11.80;99.90;;;;;;6259541;22;20016;-77
2023/12/27 11:15:08;;;;;;;1999.90;999.90;;;11.70;99.90;;;;;;6259634;22;20004;-77
2023/12/27 11:17:35;;;;;;;1999.90;999.90;;;11.80;99.90;;;;;;6284213;22;20008;-75
2023/12/27 11:20:04;;;;;;;1999.90;999.90;;;12.00;99.90;;;;;;6283550;22;20016;-76
2023/12/27 11:22:33;;;;;;;1999.90;999.90;;;11.90;99.90;;;;;;6257947;22;20017;-76
2023/12/27 11:25:00;;;;;;;1999.90;999.90;;;11.80;99.90;;;;;;6256360;22;20015;-75
2023/12/27 11:27:26;;;;;;;1999.90;999.90;;;11.80;99.90;;;;;;6284014;22;20011;-75
2023/12/27 11:29:52;;;;;;;1999.90;999.90;;;11.80;99.90;;;;;;6283945;22;20321;-75
2023/12/27 11:32:18;;;;;;;1999.90;999.90;;;11.90;99.90;;;;;;6283162;22;20069;-75
2023/12/27 11:34:44;;;;;;;1999.90;999.90;;;11.90;99.90;;;;;;6256112;22;20004;-76
2023/12/27 11:37:14;;;;;;;1999.90;999.90;;;11.90;99.90;;;;;;6285772;22;20011;-76
2023/12/27 11:39:40;;;;;;;1999.90;999.90;;;12.00;99.90;;;;;;6284768;22;20011;-76
2023/12/27 11:42:05;;;;;;;1999.90;999.90;;;12.00;99.90;;;;;;6283638;22;20019;-76
2023/12/27 11:44:40;;;;;;;1999.90;999.90;;;11.80;99.90;;;;;;6283764;22;20514;-76
2023/12/27 11:47:07;;;;;;;1999.90;999.90;;;11.90;99.90;;;;;;6283180;22;20036;-76
2023/12/27 11:49:32;;;;;;;1999.90;999.90;;;11.80;99.90;;;;;;6283758;22;20012;-76
2023/12/27 11:51:59;;;;;;;1999.90;999.90;;;11.70;99.90;;;;;;6283735;22;20433;-76
2023/12/27 11:54:26;;;;;;;1999.90;999.90;;;11.80;99.90;;;;;;6283403;22;20058;-76
2023/12/27 11:56:55;;;;;;;1999.90;999.90;;;11.90;99.90;;;;;;6255980;22;20087;-76
2023/12/27 11:59:26;;;;;;;1999.90;999.90;;;11.80;99.90;;;;;;6283904;22;20011;-76
2023/12/27 12:01:52;;;;;;;1999.90;999.90;;;11.60;99.90;;;;;;6283844;22;20014;-76